sensor_id;sensor_type;location;lat;lon;timestamp;P1;durP1;ratioP1;P2;durP2;ratioP2
10880;SDS011;5493;48.884;8.338;2022-09-25T00:01:37;6.00;;;5.07;;
10880;SDS011;5493;48.884;8.338;2022-09-25T00:04:05;9.03;;;5.47;;
10880;SDS011;5493;48.884;8.338;2022-09-25T00:06:32;8.07;;;5.90;;
10880;SDS011;5493;48.884;8.338;2022-09-25T00:08:58;7.07;;;5.67;;
10880;SDS011;5493;48.884;8.338;2022-09-25T00:11:26;6.77;;;5.20;;
10880;SDS011;5493;48.884;8.338;2022-09-25T00:13:55;7.50;;;5.87;;
10880;SDS011;5493;48.884;8.338;2022-09-25T00:16:23;7.33;;;5.83;;
10880;SDS011;5493;48.884;8.338;2022-09-25T00:18:51;8.17;;;5.87;;
10880;SDS011;5493;48.884;8.338;2022-09-25T00:21:36;6.60;;;5.57;;
10880;SDS011;5493;48.884;8.338;2022-09-25T00:24:04;7.07;;;5.10;;
10880;SDS011;5493;48.884;8.338;2022-09-25T00:26:35;7.23;;;5.23;;
10880;SDS011;5493;48.884;8.338;2022-09-25T00:29:03;8.43;;;5.63;;
10880;SDS011;5493;48.884;8.338;2022-09-25T00:31:31;7.60;;;5.30;;
10880;SDS011;5493;48.884;8.338;2022-09-25T00:33:59;6.57;;;5.67;;
10880;SDS011;5493;48.884;8.338;2022-09-25T00:36:27;8.70;;;5.53;;
10880;SDS011;5493;48.884;8.338;2022-09-25T00:38:55;7.37;;;5.47;;
10880;SDS011;5493;48.884;8.338;2022-09-25T00:41:23;8.87;;;5.37;;
10880;SDS011;5493;48.884;8.338;2022-09-25T00:43:52;6.87;;;5.43;;
10880;SDS011;5493;48.884;8.338;2022-09-25T00:46:21;8.17;;;5.90;;
10880;SDS011;5493;48.884;8.338;2022-09-25T00:48:52;7.70;;;5.93;;
10880;SDS011;5493;48.884;8.338;2022-09-25T00:51:23;7.63;;;5.70;;
10880;SDS011;5493;48.884;8.338;2022-09-25T00:53:53;8.53;;;5.83;;
10880;SDS011;5493;48.884;8.338;2022-09-25T00:56:22;9.13;;;6.10;;
10880;SDS011;5493;48.884;8.338;2022-09-25T00:58:50;7.63;;;6.00;;
10880;SDS011;5493;48.884;8.338;2022-09-25T01:01:16;6.90;;;5.80;;
10880;SDS011;5493;48.884;8.338;2022-09-25T01:03:43;8.13;;;6.10;;
10880;SDS011;5493;48.884;8.338;2022-09-25T01:06:10;8.27;;;6.47;;
10880;SDS011;5493;48.884;8.338;2022-09-25T01:08:39;8.33;;;6.23;;
10880;SDS011;5493;48.884;8.338;2022-09-25T01:11:07;8.63;;;6.13;;
10880;SDS011;5493;48.884;8.338;2022-09-25T01:13:35;7.87;;;6.33;;
10880;SDS011;5493;48.884;8.338;2022-09-25T01:16:03;11.30;;;6.50;;
10880;SDS011;5493;48.884;8.338;2022-09-25T01:21:30;10.20;;;6.63;;
10880;SDS011;5493;48.884;8.338;2022-09-25T01:24:21;7.90;;;6.23;;
10880;SDS011;5493;48.884;8.338;2022-09-25T01:27:14;9.17;;;6.20;;
10880;SDS011;5493;48.884;8.338;2022-09-25T01:30:02;8.93;;;6.27;;
10880;SDS011;5493;48.884;8.338;2022-09-25T01:32:33;8.30;;;6.33;;
10880;SDS011;5493;48.884;8.338;2022-09-25T01:35:12;7.93;;;5.80;;
10880;SDS011;5493;48.884;8.338;2022-09-25T01:37:43;7.33;;;5.87;;
10880;SDS011;5493;48.884;8.338;2022-09-25T01:40:16;7.30;;;5.67;;
10880;SDS011;5493;48.884;8.338;2022-09-25T01:42:50;7.87;;;6.20;;
10880;SDS011;5493;48.884;8.338;2022-09-25T01:45:23;7.00;;;5.70;;
10880;SDS011;5493;48.884;8.338;2022-09-25T01:47:54;7.77;;;5.93;;
10880;SDS011;5493;48.884;8.338;2022-09-25T01:50:26;9.10;;;5.63;;
10880;SDS011;5493;48.884;8.338;2022-09-25T01:52:58;7.00;;;6.00;;
10880;SDS011;5493;48.884;8.338;2022-09-25T01:55:29;6.27;;;5.63;;
10880;SDS011;5493;48.884;8.338;2022-09-25T01:58:01;7.27;;;5.33;;
10880;SDS011;5493;48.884;8.338;2022-09-25T02:00:35;7.93;;;5.93;;
10880;SDS011;5493;48.884;8.338;2022-09-25T02:03:06;7.30;;;5.23;;
10880;SDS011;5493;48.884;8.338;2022-09-25T02:05:39;6.93;;;5.70;;
10880;SDS011;5493;48.884;8.338;2022-09-25T02:08:09;7.27;;;5.27;;
10880;SDS011;5493;48.884;8.338;2022-09-25T02:10:42;7.17;;;5.97;;
10880;SDS011;5493;48.884;8.338;2022-09-25T02:13:12;6.07;;;4.60;;
10880;SDS011;5493;48.884;8.338;2022-09-25T02:15:43;6.63;;;5.33;;
10880;SDS011;5493;48.884;8.338;2022-09-25T02:18:13;7.27;;;5.43;;
10880;SDS011;5493;48.884;8.338;2022-09-25T02:21:02;6.43;;;5.23;;
10880;SDS011;5493;48.884;8.338;2022-09-25T02:23:39;6.33;;;4.67;;
10880;SDS011;5493;48.884;8.338;2022-09-25T02:26:15;5.90;;;4.53;;
10880;SDS011;5493;48.884;8.338;2022-09-25T02:28:46;5.40;;;4.20;;
10880;SDS011;5493;48.884;8.338;2022-09-25T02:31:15;4.63;;;4.17;;
10880;SDS011;5493;48.884;8.338;2022-09-25T02:33:43;6.27;;;4.77;;
10880;SDS011;5493;48.884;8.338;2022-09-25T02:36:15;5.57;;;4.17;;
10880;SDS011;5493;48.884;8.338;2022-09-25T02:38:42;5.30;;;3.83;;
10880;SDS011;5493;48.884;8.338;2022-09-25T02:41:10;5.17;;;3.73;;
10880;SDS011;5493;48.884;8.338;2022-09-25T02:43:49;5.67;;;3.90;;
10880;SDS011;5493;48.884;8.338;2022-09-25T02:46:26;4.40;;;3.90;;
10880;SDS011;5493;48.884;8.338;2022-09-25T02:49:03;4.63;;;3.63;;
10880;SDS011;5493;48.884;8.338;2022-09-25T02:51:44;4.33;;;3.30;;
10880;SDS011;5493;48.884;8.338;2022-09-25T02:54:18;4.23;;;3.00;;
10880;SDS011;5493;48.884;8.338;2022-09-25T02:56:50;3.77;;;2.90;;
10880;SDS011;5493;48.884;8.338;2022-09-25T02:59:22;4.07;;;3.10;;
10880;SDS011;5493;48.884;8.338;2022-09-25T03:01:55;4.90;;;2.97;;
10880;SDS011;5493;48.884;8.338;2022-09-25T03:04:24;4.53;;;3.43;;
10880;SDS011;5493;48.884;8.338;2022-09-25T03:06:53;5.27;;;3.13;;
10880;SDS011;5493;48.884;8.338;2022-09-25T03:09:21;3.93;;;2.97;;
10880;SDS011;5493;48.884;8.338;2022-09-25T03:11:50;4.77;;;3.10;;
10880;SDS011;5493;48.884;8.338;2022-09-25T03:14:16;5.67;;;3.53;;
10880;SDS011;5493;48.884;8.338;2022-09-25T03:16:44;4.60;;;3.10;;
10880;SDS011;5493;48.884;8.338;2022-09-25T03:19:15;5.10;;;3.73;;
10880;SDS011;5493;48.884;8.338;2022-09-25T03:21:43;4.33;;;3.60;;
10880;SDS011;5493;48.884;8.338;2022-09-25T03:24:10;5.30;;;3.93;;
10880;SDS011;5493;48.884;8.338;2022-09-25T03:26:37;3.87;;;3.47;;
10880;SDS011;5493;48.884;8.338;2022-09-25T03:29:04;4.40;;;3.90;;
10880;SDS011;5493;48.884;8.338;2022-09-25T03:31:31;5.63;;;3.73;;
10880;SDS011;5493;48.884;8.338;2022-09-25T03:33:58;3.80;;;3.27;;
10880;SDS011;5493;48.884;8.338;2022-09-25T03:36:27;6.20;;;3.43;;
10880;SDS011;5493;48.884;8.338;2022-09-25T03:38:55;3.60;;;2.93;;
10880;SDS011;5493;48.884;8.338;2022-09-25T03:41:23;5.77;;;3.00;;
10880;SDS011;5493;48.884;8.338;2022-09-25T03:43:51;4.90;;;2.83;;
10880;SDS011;5493;48.884;8.338;2022-09-25T03:46:19;3.40;;;2.70;;
10880;SDS011;5493;48.884;8.338;2022-09-25T03:48:46;3.87;;;2.80;;
10880;SDS011;5493;48.884;8.338;2022-09-25T03:51:13;4.13;;;2.80;;
10880;SDS011;5493;48.884;8.338;2022-09-25T03:53:41;3.50;;;2.70;;
10880;SDS011;5493;48.884;8.338;2022-09-25T03:56:08;3.30;;;2.73;;
10880;SDS011;5493;48.884;8.338;2022-09-25T03:58:36;3.33;;;2.70;;
10880;SDS011;5493;48.884;8.338;2022-09-25T04:01:03;4.27;;;2.87;;
10880;SDS011;5493;48.884;8.338;2022-09-25T04:03:30;4.07;;;2.50;;
10880;SDS011;5493;48.884;8.338;2022-09-25T04:05:59;3.17;;;2.37;;
10880;SDS011;5493;48.884;8.338;2022-09-25T04:08:29;3.33;;;2.60;;
10880;SDS011;5493;48.884;8.338;2022-09-25T04:10:57;3.30;;;2.60;;
10880;SDS011;5493;48.884;8.338;2022-09-25T04:13:25;6.07;;;2.87;;
10880;SDS011;5493;48.884;8.338;2022-09-25T04:15:54;3.90;;;2.90;;
10880;SDS011;5493;48.884;8.338;2022-09-25T04:18:21;4.80;;;3.33;;
10880;SDS011;5493;48.884;8.338;2022-09-25T04:20:48;3.73;;;3.33;;
10880;SDS011;5493;48.884;8.338;2022-09-25T04:23:15;3.43;;;3.03;;
10880;SDS011;5493;48.884;8.338;2022-09-25T04:25:41;4.00;;;3.60;;
10880;SDS011;5493;48.884;8.338;2022-09-25T04:28:11;4.17;;;3.50;;
10880;SDS011;5493;48.884;8.338;2022-09-25T04:30:37;5.17;;;3.73;;
10880;SDS011;5493;48.884;8.338;2022-09-25T04:33:04;3.97;;;3.10;;
10880;SDS011;5493;48.884;8.338;2022-09-25T04:35:48;4.27;;;3.30;;
10880;SDS011;5493;48.884;8.338;2022-09-25T04:38:14;5.33;;;3.50;;
10880;SDS011;5493;48.884;8.338;2022-09-25T04:40:41;5.83;;;3.27;;
10880;SDS011;5493;48.884;8.338;2022-09-25T04:43:11;3.83;;;3.23;;
10880;SDS011;5493;48.884;8.338;2022-09-25T04:45:37;3.20;;;2.90;;
10880;SDS011;5493;48.884;8.338;2022-09-25T04:48:04;5.63;;;3.27;;
10880;SDS011;5493;48.884;8.338;2022-09-25T04:50:31;4.73;;;3.27;;
10880;SDS011;5493;48.884;8.338;2022-09-25T04:52:58;5.40;;;3.77;;
10880;SDS011;5493;48.884;8.338;2022-09-25T04:55:25;5.63;;;4.43;;
10880;SDS011;5493;48.884;8.338;2022-09-25T04:57:52;6.40;;;4.57;;
10880;SDS011;5493;48.884;8.338;2022-09-25T05:00:22;4.57;;;4.17;;
10880;SDS011;5493;48.884;8.338;2022-09-25T05:02:50;5.23;;;4.07;;
10880;SDS011;5493;48.884;8.338;2022-09-25T05:05:16;4.33;;;3.87;;
10880;SDS011;5493;48.884;8.338;2022-09-25T05:07:49;3.63;;;3.23;;
10880;SDS011;5493;48.884;8.338;2022-09-25T05:10:16;4.20;;;2.97;;
10880;SDS011;5493;48.884;8.338;2022-09-25T05:12:42;3.77;;;3.00;;
10880;SDS011;5493;48.884;8.338;2022-09-25T05:15:09;3.67;;;3.17;;
10880;SDS011;5493;48.884;8.338;2022-09-25T05:17:37;6.07;;;3.43;;
10880;SDS011;5493;48.884;8.338;2022-09-25T05:20:04;3.60;;;3.03;;
10880;SDS011;5493;48.884;8.338;2022-09-25T05:22:31;4.33;;;3.70;;
10880;SDS011;5493;48.884;8.338;2022-09-25T05:24:57;4.90;;;3.33;;
10880;SDS011;5493;48.884;8.338;2022-09-25T05:27:24;5.50;;;3.30;;
10880;SDS011;5493;48.884;8.338;2022-09-25T05:29:50;4.47;;;3.40;;
10880;SDS011;5493;48.884;8.338;2022-09-25T05:32:17;4.53;;;3.67;;
10880;SDS011;5493;48.884;8.338;2022-09-25T05:34:45;4.70;;;4.13;;
10880;SDS011;5493;48.884;8.338;2022-09-25T05:37:12;5.73;;;4.10;;
10880;SDS011;5493;48.884;8.338;2022-09-25T05:39:38;6.40;;;3.97;;
10880;SDS011;5493;48.884;8.338;2022-09-25T05:42:05;5.60;;;4.20;;
10880;SDS011;5493;48.884;8.338;2022-09-25T05:44:31;5.53;;;3.93;;
10880;SDS011;5493;48.884;8.338;2022-09-25T05:46:57;4.60;;;3.70;;
10880;SDS011;5493;48.884;8.338;2022-09-25T05:49:24;5.60;;;4.17;;
10880;SDS011;5493;48.884;8.338;2022-09-25T05:51:52;4.63;;;3.80;;
10880;SDS011;5493;48.884;8.338;2022-09-25T05:54:18;5.83;;;4.20;;
10880;SDS011;5493;48.884;8.338;2022-09-25T05:56:45;5.30;;;4.23;;
10880;SDS011;5493;48.884;8.338;2022-09-25T05:59:11;4.70;;;3.63;;
10880;SDS011;5493;48.884;8.338;2022-09-25T06:01:37;4.10;;;3.50;;
10880;SDS011;5493;48.884;8.338;2022-09-25T06:04:05;4.73;;;3.90;;
10880;SDS011;5493;48.884;8.338;2022-09-25T06:06:31;5.90;;;3.83;;
10880;SDS011;5493;48.884;8.338;2022-09-25T06:08:59;5.57;;;3.70;;
10880;SDS011;5493;48.884;8.338;2022-09-25T06:11:26;5.17;;;3.57;;
10880;SDS011;5493;48.884;8.338;2022-09-25T06:13:53;4.23;;;3.70;;
10880;SDS011;5493;48.884;8.338;2022-09-25T06:16:21;7.10;;;3.67;;
10880;SDS011;5493;48.884;8.338;2022-09-25T06:18:48;5.80;;;3.77;;
10880;SDS011;5493;48.884;8.338;2022-09-25T06:21:15;6.37;;;4.03;;
10880;SDS011;5493;48.884;8.338;2022-09-25T06:23:41;6.77;;;3.87;;
10880;SDS011;5493;48.884;8.338;2022-09-25T06:26:10;4.03;;;3.60;;
10880;SDS011;5493;48.884;8.338;2022-09-25T06:28:38;5.73;;;4.00;;
10880;SDS011;5493;48.884;8.338;2022-09-25T06:31:04;5.80;;;3.90;;
10880;SDS011;5493;48.884;8.338;2022-09-25T06:33:31;4.13;;;3.63;;
10880;SDS011;5493;48.884;8.338;2022-09-25T06:35:58;6.13;;;3.90;;
10880;SDS011;5493;48.884;8.338;2022-09-25T06:38:25;6.10;;;4.17;;
10880;SDS011;5493;48.884;8.338;2022-09-25T06:40:51;7.33;;;4.10;;
10880;SDS011;5493;48.884;8.338;2022-09-25T06:43:19;4.33;;;3.93;;
10880;SDS011;5493;48.884;8.338;2022-09-25T06:45:46;6.03;;;4.07;;
10880;SDS011;5493;48.884;8.338;2022-09-25T06:48:13;5.33;;;4.30;;
10880;SDS011;5493;48.884;8.338;2022-09-25T06:50:41;5.60;;;3.90;;
10880;SDS011;5493;48.884;8.338;2022-09-25T06:53:09;5.37;;;4.23;;
10880;SDS011;5493;48.884;8.338;2022-09-25T06:55:36;6.43;;;4.43;;
10880;SDS011;5493;48.884;8.338;2022-09-25T06:58:03;5.63;;;4.70;;
10880;SDS011;5493;48.884;8.338;2022-09-25T07:00:32;6.73;;;4.93;;
10880;SDS011;5493;48.884;8.338;2022-09-25T07:02:59;7.17;;;5.57;;
10880;SDS011;5493;48.884;8.338;2022-09-25T07:05:44;7.20;;;5.50;;
10880;SDS011;5493;48.884;8.338;2022-09-25T07:08:12;7.53;;;5.50;;
10880;SDS011;5493;48.884;8.338;2022-09-25T07:10:45;8.33;;;6.47;;
10880;SDS011;5493;48.884;8.338;2022-09-25T07:13:12;9.13;;;6.57;;
10880;SDS011;5493;48.884;8.338;2022-09-25T07:15:40;10.67;;;6.80;;
10880;SDS011;5493;48.884;8.338;2022-09-25T07:18:06;11.60;;;7.03;;
10880;SDS011;5493;48.884;8.338;2022-09-25T07:20:33;9.80;;;6.97;;
10880;SDS011;5493;48.884;8.338;2022-09-25T07:22:59;8.43;;;7.10;;
10880;SDS011;5493;48.884;8.338;2022-09-25T07:25:28;9.50;;;7.17;;
10880;SDS011;5493;48.884;8.338;2022-09-25T07:27:54;9.73;;;7.60;;
10880;SDS011;5493;48.884;8.338;2022-09-25T07:30:21;9.47;;;7.40;;
10880;SDS011;5493;48.884;8.338;2022-09-25T07:32:49;10.67;;;7.90;;
10880;SDS011;5493;48.884;8.338;2022-09-25T07:35:15;9.33;;;6.90;;
10880;SDS011;5493;48.884;8.338;2022-09-25T07:37:42;11.43;;;7.97;;
10880;SDS011;5493;48.884;8.338;2022-09-25T07:40:09;12.40;;;9.07;;
10880;SDS011;5493;48.884;8.338;2022-09-25T07:42:37;11.47;;;8.60;;
10880;SDS011;5493;48.884;8.338;2022-09-25T07:45:04;11.03;;;8.60;;
10880;SDS011;5493;48.884;8.338;2022-09-25T07:47:31;13.70;;;9.23;;
10880;SDS011;5493;48.884;8.338;2022-09-25T07:49:58;14.83;;;10.67;;
10880;SDS011;5493;48.884;8.338;2022-09-25T07:52:25;16.17;;;9.07;;
10880;SDS011;5493;48.884;8.338;2022-09-25T07:54:51;15.70;;;9.87;;
10880;SDS011;5493;48.884;8.338;2022-09-25T07:57:18;12.83;;;8.80;;
10880;SDS011;5493;48.884;8.338;2022-09-25T07:59:45;15.53;;;9.13;;
10880;SDS011;5493;48.884;8.338;2022-09-25T08:02:11;14.00;;;9.57;;
10880;SDS011;5493;48.884;8.338;2022-09-25T08:04:38;14.37;;;9.70;;
10880;SDS011;5493;48.884;8.338;2022-09-25T08:07:06;13.20;;;9.40;;
10880;SDS011;5493;48.884;8.338;2022-09-25T08:09:32;13.73;;;9.43;;
10880;SDS011;5493;48.884;8.338;2022-09-25T08:11:59;14.37;;;9.90;;
10880;SDS011;5493;48.884;8.338;2022-09-25T08:14:26;13.57;;;9.90;;
10880;SDS011;5493;48.884;8.338;2022-09-25T08:16:53;16.90;;;10.07;;
10880;SDS011;5493;48.884;8.338;2022-09-25T08:19:19;13.30;;;9.87;;
10880;SDS011;5493;48.884;8.338;2022-09-25T08:21:47;13.73;;;9.63;;
10880;SDS011;5493;48.884;8.338;2022-09-25T08:24:15;16.80;;;9.73;;
10880;SDS011;5493;48.884;8.338;2022-09-25T08:26:42;15.00;;;9.77;;
10880;SDS011;5493;48.884;8.338;2022-09-25T08:29:08;15.67;;;9.97;;
10880;SDS011;5493;48.884;8.338;2022-09-25T08:31:35;16.20;;;10.13;;
10880;SDS011;5493;48.884;8.338;2022-09-25T08:34:02;13.07;;;9.33;;
10880;SDS011;5493;48.884;8.338;2022-09-25T08:36:28;16.03;;;9.60;;
10880;SDS011;5493;48.884;8.338;2022-09-25T08:38:55;19.07;;;12.57;;
10880;SDS011;5493;48.884;8.338;2022-09-25T08:41:25;16.97;;;9.73;;
10880;SDS011;5493;48.884;8.338;2022-09-25T08:43:56;16.23;;;11.80;;
10880;SDS011;5493;48.884;8.338;2022-09-25T08:46:31;13.33;;;9.97;;
10880;SDS011;5493;48.884;8.338;2022-09-25T08:49:21;14.00;;;9.37;;
10880;SDS011;5493;48.884;8.338;2022-09-25T08:51:51;13.27;;;9.03;;
10880;SDS011;5493;48.884;8.338;2022-09-25T08:54:22;12.80;;;9.37;;
10880;SDS011;5493;48.884;8.338;2022-09-25T08:56:54;14.67;;;10.10;;
10880;SDS011;5493;48.884;8.338;2022-09-25T08:59:22;13.13;;;9.67;;
10880;SDS011;5493;48.884;8.338;2022-09-25T09:01:54;13.23;;;9.33;;
10880;SDS011;5493;48.884;8.338;2022-09-25T09:04:24;12.60;;;9.43;;
10880;SDS011;5493;48.884;8.338;2022-09-25T09:06:54;12.57;;;9.30;;
10880;SDS011;5493;48.884;8.338;2022-09-25T09:09:27;14.93;;;9.63;;
10880;SDS011;5493;48.884;8.338;2022-09-25T09:12:00;14.53;;;9.33;;
10880;SDS011;5493;48.884;8.338;2022-09-25T09:14:31;13.57;;;10.53;;
10880;SDS011;5493;48.884;8.338;2022-09-25T09:17:06;16.67;;;11.20;;
10880;SDS011;5493;48.884;8.338;2022-09-25T09:19:42;17.13;;;10.43;;
10880;SDS011;5493;48.884;8.338;2022-09-25T09:22:12;18.43;;;10.20;;
10880;SDS011;5493;48.884;8.338;2022-09-25T09:24:44;13.03;;;9.93;;
10880;SDS011;5493;48.884;8.338;2022-09-25T09:27:27;13.40;;;9.70;;
10880;SDS011;5493;48.884;8.338;2022-09-25T09:30:10;15.53;;;10.70;;
10880;SDS011;5493;48.884;8.338;2022-09-25T09:32:44;15.80;;;9.80;;
10880;SDS011;5493;48.884;8.338;2022-09-25T09:35:29;20.17;;;10.17;;
10880;SDS011;5493;48.884;8.338;2022-09-25T09:38:09;13.67;;;9.97;;
10880;SDS011;5493;48.884;8.338;2022-09-25T09:40:52;14.13;;;9.83;;
10880;SDS011;5493;48.884;8.338;2022-09-25T09:43:35;13.53;;;9.57;;
10880;SDS011;5493;48.884;8.338;2022-09-25T09:46:11;12.33;;;9.10;;
10880;SDS011;5493;48.884;8.338;2022-09-25T09:48:47;16.17;;;11.00;;
10880;SDS011;5493;48.884;8.338;2022-09-25T09:51:27;15.83;;;10.73;;
10880;SDS011;5493;48.884;8.338;2022-09-25T09:53:59;14.20;;;9.87;;
10880;SDS011;5493;48.884;8.338;2022-09-25T09:56:29;12.07;;;8.93;;
10880;SDS011;5493;48.884;8.338;2022-09-25T09:59:01;12.93;;;8.93;;
10880;SDS011;5493;48.884;8.338;2022-09-25T10:01:30;12.13;;;8.87;;
10880;SDS011;5493;48.884;8.338;2022-09-25T10:04:02;11.17;;;8.77;;
10880;SDS011;5493;48.884;8.338;2022-09-25T10:06:32;12.97;;;9.43;;
10880;SDS011;5493;48.884;8.338;2022-09-25T10:09:02;11.17;;;8.57;;
10880;SDS011;5493;48.884;8.338;2022-09-25T10:11:30;12.20;;;9.17;;
10880;SDS011;5493;48.884;8.338;2022-09-25T10:14:01;12.73;;;8.50;;
10880;SDS011;5493;48.884;8.338;2022-09-25T10:16:29;12.30;;;8.73;;
10880;SDS011;5493;48.884;8.338;2022-09-25T10:18:58;11.00;;;8.70;;
10880;SDS011;5493;48.884;8.338;2022-09-25T10:21:27;11.97;;;9.83;;
10880;SDS011;5493;48.884;8.338;2022-09-25T10:23:57;10.03;;;8.47;;
10880;SDS011;5493;48.884;8.338;2022-09-25T10:26:27;11.77;;;8.63;;
10880;SDS011;5493;48.884;8.338;2022-09-25T10:28:55;12.67;;;8.83;;
10880;SDS011;5493;48.884;8.338;2022-09-25T10:31:26;11.77;;;9.47;;
10880;SDS011;5493;48.884;8.338;2022-09-25T10:33:58;10.90;;;8.50;;
10880;SDS011;5493;48.884;8.338;2022-09-25T10:36:30;12.87;;;9.40;;
10880;SDS011;5493;48.884;8.338;2022-09-25T10:39:00;12.03;;;8.93;;
10880;SDS011;5493;48.884;8.338;2022-09-25T10:41:28;11.43;;;8.60;;
10880;SDS011;5493;48.884;8.338;2022-09-25T10:44:08;12.20;;;8.87;;
10880;SDS011;5493;48.884;8.338;2022-09-25T10:46:47;14.50;;;9.33;;
10880;SDS011;5493;48.884;8.338;2022-09-25T10:49:44;13.73;;;9.43;;
10880;SDS011;5493;48.884;8.338;2022-09-25T10:52:39;15.43;;;10.10;;
10880;SDS011;5493;48.884;8.338;2022-09-25T10:55:12;11.43;;;8.80;;
10880;SDS011;5493;48.884;8.338;2022-09-25T10:57:41;12.57;;;9.30;;
10880;SDS011;5493;48.884;8.338;2022-09-25T11:00:18;14.77;;;9.23;;
10880;SDS011;5493;48.884;8.338;2022-09-25T11:02:49;14.23;;;9.47;;
10880;SDS011;5493;48.884;8.338;2022-09-25T11:05:18;11.57;;;9.43;;
10880;SDS011;5493;48.884;8.338;2022-09-25T11:07:46;12.73;;;8.87;;
10880;SDS011;5493;48.884;8.338;2022-09-25T11:10:19;12.10;;;9.50;;
10880;SDS011;5493;48.884;8.338;2022-09-25T11:12:47;12.33;;;8.97;;
10880;SDS011;5493;48.884;8.338;2022-09-25T11:15:15;14.90;;;9.53;;
10880;SDS011;5493;48.884;8.338;2022-09-25T11:17:44;12.00;;;9.10;;
10880;SDS011;5493;48.884;8.338;2022-09-25T11:20:22;14.20;;;9.73;;
10880;SDS011;5493;48.884;8.338;2022-09-25T11:22:56;15.47;;;10.13;;
10880;SDS011;5493;48.884;8.338;2022-09-25T11:25:41;15.80;;;10.10;;
10880;SDS011;5493;48.884;8.338;2022-09-25T11:28:12;14.97;;;10.57;;
10880;SDS011;5493;48.884;8.338;2022-09-25T11:30:43;15.90;;;10.90;;
10880;SDS011;5493;48.884;8.338;2022-09-25T11:33:22;17.83;;;10.70;;
10880;SDS011;5493;48.884;8.338;2022-09-25T11:35:55;17.10;;;10.83;;
10880;SDS011;5493;48.884;8.338;2022-09-25T11:38:27;15.40;;;10.27;;
10880;SDS011;5493;48.884;8.338;2022-09-25T11:44:09;17.33;;;11.30;;
10880;SDS011;5493;48.884;8.338;2022-09-25T11:46:46;17.47;;;11.27;;
10880;SDS011;5493;48.884;8.338;2022-09-25T11:49:21;16.47;;;11.10;;
10880;SDS011;5493;48.884;8.338;2022-09-25T11:58:03;16.60;;;11.03;;
10880;SDS011;5493;48.884;8.338;2022-09-25T12:00:41;16.20;;;11.53;;
10880;SDS011;5493;48.884;8.338;2022-09-25T12:03:18;17.23;;;11.70;;
10880;SDS011;5493;48.884;8.338;2022-09-25T12:06:00;18.00;;;12.67;;
10880;SDS011;5493;48.884;8.338;2022-09-25T12:08:46;14.70;;;11.20;;
10880;SDS011;5493;48.884;8.338;2022-09-25T12:11:24;17.83;;;11.83;;
10880;SDS011;5493;48.884;8.338;2022-09-25T12:14:02;17.33;;;11.57;;
10880;SDS011;5493;48.884;8.338;2022-09-25T12:16:39;18.07;;;11.37;;
10880;SDS011;5493;48.884;8.338;2022-09-25T12:19:14;16.07;;;11.30;;
10880;SDS011;5493;48.884;8.338;2022-09-25T12:21:53;18.47;;;12.07;;
10880;SDS011;5493;48.884;8.338;2022-09-25T12:24:28;18.33;;;12.27;;
10880;SDS011;5493;48.884;8.338;2022-09-25T12:27:03;17.73;;;11.90;;
10880;SDS011;5493;48.884;8.338;2022-09-25T12:29:38;18.43;;;12.67;;
10880;SDS011;5493;48.884;8.338;2022-09-25T12:32:15;17.53;;;11.50;;
10880;SDS011;5493;48.884;8.338;2022-09-25T12:34:55;15.10;;;11.37;;
10880;SDS011;5493;48.884;8.338;2022-09-25T12:37:37;14.57;;;10.80;;
10880;SDS011;5493;48.884;8.338;2022-09-25T12:40:11;14.63;;;11.33;;
10880;SDS011;5493;48.884;8.338;2022-09-25T12:42:42;17.83;;;11.50;;
10880;SDS011;5493;48.884;8.338;2022-09-25T12:45:13;15.05;;;11.18;;
10880;SDS011;5493;48.884;8.338;2022-09-25T12:47:44;14.38;;;10.18;;
10880;SDS011;5493;48.884;8.338;2022-09-25T12:50:24;15.10;;;10.17;;
10880;SDS011;5493;48.884;8.338;2022-09-25T12:52:57;12.40;;;9.55;;
10880;SDS011;5493;48.884;8.338;2022-09-25T12:55:29;14.40;;;10.13;;
10880;SDS011;5493;48.884;8.338;2022-09-25T12:58:04;13.93;;;10.07;;
10880;SDS011;5493;48.884;8.338;2022-09-25T13:00:42;11.87;;;8.40;;
10880;SDS011;5493;48.884;8.338;2022-09-25T13:03:13;10.83;;;7.57;;
10880;SDS011;5493;48.884;8.338;2022-09-25T13:05:46;12.83;;;9.13;;
10880;SDS011;5493;48.884;8.338;2022-09-25T13:08:21;13.20;;;8.77;;
10880;SDS011;5493;48.884;8.338;2022-09-25T13:10:54;11.53;;;9.37;;
10880;SDS011;5493;48.884;8.338;2022-09-25T13:13:23;13.70;;;8.67;;
10880;SDS011;5493;48.884;8.338;2022-09-25T13:15:54;10.27;;;7.90;;
10880;SDS011;5493;48.884;8.338;2022-09-25T13:18:23;14.00;;;8.60;;
10880;SDS011;5493;48.884;8.338;2022-09-25T13:20:52;13.70;;;8.73;;
10880;SDS011;5493;48.884;8.338;2022-09-25T13:23:28;13.20;;;8.73;;
10880;SDS011;5493;48.884;8.338;2022-09-25T13:25:58;10.90;;;8.00;;
10880;SDS011;5493;48.884;8.338;2022-09-25T13:28:28;36.53;;;23.47;;
10880;SDS011;5493;48.884;8.338;2022-09-25T13:31:04;18.60;;;12.60;;
10880;SDS011;5493;48.884;8.338;2022-09-25T13:33:36;15.07;;;9.80;;
10880;SDS011;5493;48.884;8.338;2022-09-25T13:36:11;5.60;;;4.63;;
10880;SDS011;5493;48.884;8.338;2022-09-25T13:38:49;6.73;;;4.87;;
10880;SDS011;5493;48.884;8.338;2022-09-25T13:41:52;6.40;;;4.47;;
10880;SDS011;5493;48.884;8.338;2022-09-25T13:44:35;6.60;;;5.40;;
10880;SDS011;5493;48.884;8.338;2022-09-25T13:50:31;6.83;;;5.63;;
10880;SDS011;5493;48.884;8.338;2022-09-25T13:53:02;7.50;;;5.63;;
10880;SDS011;5493;48.884;8.338;2022-09-25T13:59:01;8.67;;;6.97;;
10880;SDS011;5493;48.884;8.338;2022-09-25T14:01:53;8.57;;;5.23;;
10880;SDS011;5493;48.884;8.338;2022-09-25T14:04:23;7.60;;;5.47;;
10880;SDS011;5493;48.884;8.338;2022-09-25T14:06:55;7.60;;;6.00;;
10880;SDS011;5493;48.884;8.338;2022-09-25T14:09:31;7.73;;;5.73;;
10880;SDS011;5493;48.884;8.338;2022-09-25T14:12:05;8.57;;;6.23;;
10880;SDS011;5493;48.884;8.338;2022-09-25T14:14:41;10.63;;;6.97;;
10880;SDS011;5493;48.884;8.338;2022-09-25T14:17:16;13.33;;;8.70;;
10880;SDS011;5493;48.884;8.338;2022-09-25T14:19:44;11.17;;;8.90;;
10880;SDS011;5493;48.884;8.338;2022-09-25T14:22:17;11.70;;;7.57;;
10880;SDS011;5493;48.884;8.338;2022-09-25T14:24:50;11.70;;;8.30;;
10880;SDS011;5493;48.884;8.338;2022-09-25T14:27:20;13.80;;;9.10;;
10880;SDS011;5493;48.884;8.338;2022-09-25T14:29:48;9.37;;;7.47;;
10880;SDS011;5493;48.884;8.338;2022-09-25T14:32:17;10.50;;;7.63;;
10880;SDS011;5493;48.884;8.338;2022-09-25T14:35:02;10.77;;;8.27;;
10880;SDS011;5493;48.884;8.338;2022-09-25T14:37:45;11.17;;;8.33;;
10880;SDS011;5493;48.884;8.338;2022-09-25T14:40:25;10.23;;;7.50;;
10880;SDS011;5493;48.884;8.338;2022-09-25T14:45:59;11.00;;;6.87;;
10880;SDS011;5493;48.884;8.338;2022-09-25T14:48:30;9.93;;;7.73;;
10880;SDS011;5493;48.884;8.338;2022-09-25T14:51:02;9.70;;;7.33;;
10880;SDS011;5493;48.884;8.338;2022-09-25T14:53:35;9.93;;;7.50;;
10880;SDS011;5493;48.884;8.338;2022-09-25T14:56:04;10.03;;;7.57;;
10880;SDS011;5493;48.884;8.338;2022-09-25T14:58:37;8.53;;;7.13;;
10880;SDS011;5493;48.884;8.338;2022-09-25T15:01:10;10.63;;;7.50;;
10880;SDS011;5493;48.884;8.338;2022-09-25T15:03:42;9.23;;;7.77;;
10880;SDS011;5493;48.884;8.338;2022-09-25T15:06:12;9.37;;;7.10;;
10880;SDS011;5493;48.884;8.338;2022-09-25T15:08:49;8.07;;;5.23;;
10880;SDS011;5493;48.884;8.338;2022-09-25T15:11:16;6.83;;;6.13;;
10880;SDS011;5493;48.884;8.338;2022-09-25T15:13:45;8.67;;;6.20;;
10880;SDS011;5493;48.884;8.338;2022-09-25T15:16:13;10.33;;;6.47;;
10880;SDS011;5493;48.884;8.338;2022-09-25T15:18:59;8.30;;;5.53;;
10880;SDS011;5493;48.884;8.338;2022-09-25T15:21:28;8.07;;;6.20;;
10880;SDS011;5493;48.884;8.338;2022-09-25T15:23:57;8.73;;;6.50;;
10880;SDS011;5493;48.884;8.338;2022-09-25T15:26:27;10.93;;;7.60;;
10880;SDS011;5493;48.884;8.338;2022-09-25T15:28:56;10.73;;;7.33;;
10880;SDS011;5493;48.884;8.338;2022-09-25T15:31:23;9.83;;;5.70;;
10880;SDS011;5493;48.884;8.338;2022-09-25T15:34:00;8.63;;;6.27;;
10880;SDS011;5493;48.884;8.338;2022-09-25T15:36:28;8.77;;;6.20;;
10880;SDS011;5493;48.884;8.338;2022-09-25T15:38:56;7.23;;;5.10;;